Time;durP1;ratioP1;P1;durP2;ratioP2;P2;SDS_P1;SDS_P2;PMS_P1;PMS_P2;Temp;Humidity;BMP_temperature;BMP_pressure;BME280_temperature;BME280_humidity;BME280_pressure;Samples;Min_cycle;Max_cycle;Signal;HPM_P1;HPM_P2
2022/12/03 00:00:17;;;;;;;6.00;4.85;;;;;;;3.03;91.28;100342.09;5017371;28;20060;-70
2022/12/03 00:02:46;;;;;;;3.63;3.33;;;;;;;3.04;91.13;100345.47;5017535;28;20514;-70
2022/12/03 00:05:15;;;;;;;2.53;2.00;;;;;;;2.88;90.97;100312.91;5017232;28;20052;-70
2022/12/03 00:07:44;;;;;;;3.30;3.00;;;;;;;2.98;90.76;100345.22;5017496;28;20088;-70
2022/12/03 00:10:13;;;;;;;7.35;6.65;;;;;;;2.97;91.20;100338.47;4999879;28;20144;-70
2022/12/03 00:12:42;;;;;;;14.35;3.80;;;;;;;3.02;91.20;100347.06;5017337;28;20040;-70
2022/12/03 00:15:12;;;;;;;2.63;2.42;;;;;;;3.04;91.44;100351.38;5017004;28;20046;-70
2022/12/03 00:17:41;;;;;;;3.15;2.60;;;;;;;3.05;90.67;100345.50;5017407;28;20108;-70
2022/12/03 00:20:18;;;;;;;3.63;3.28;;;;;;;3.08;90.68;100347.31;5016988;28;20041;-70
2022/12/03 00:22:47;;;;;;;4.43;3.33;;;;;;;2.92;90.99;100317.25;5017417;28;20046;-70
2022/12/03 00:25:17;;;;;;;2.87;2.67;;;;;;;2.92;90.93;100317.25;5016824;28;20077;-70
2022/12/03 00:27:45;;;;;;;4.00;3.60;;;;;;;3.10;91.07;100350.75;5016833;28;20057;-70
2022/12/03 00:30:16;;;;;;;3.00;2.80;;;;;;;3.11;91.16;100342.38;5017116;28;20136;-70
2022/12/03 00:32:44;;;;;;;5.28;4.78;;;;;;;3.11;90.73;100344.91;5017051;28;20100;-70
2022/12/03 00:35:13;;;;;;;1.08;1.05;;;;;;;3.13;90.69;100350.88;5016374;28;20064;-70
2022/12/03 00:37:42;;;;;;;22.97;4.67;;;;;;;3.11;90.76;100342.38;5016619;28;20053;-70
2022/12/03 00:40:12;;;;;;;2.63;1.92;;;;;;;3.13;90.86;100344.16;5016591;28;20290;-70
2022/12/03 00:42:41;;;;;;;5.32;4.20;;;;;;;3.11;90.59;100337.34;5017097;28;20209;-70
2022/12/03 00:45:10;;;;;;;3.42;2.65;;;;;;;3.14;90.93;100342.50;5017059;28;20034;-70
2022/12/03 00:47:40;;;;;;;4.00;3.15;;;;;;;3.13;90.54;100346.69;5017013;28;20052;-70
2022/12/03 00:50:10;;;;;;;2.80;2.10;;;;;;;2.95;91.23;100312.34;5017025;28;20137;-70
2022/12/03 00:52:39;;;;;;;2.45;2.25;;;;;;;3.16;90.85;100345.94;5016509;28;20046;-70
2022/12/03 00:55:08;;;;;;;4.60;4.20;;;;;;;3.15;90.62;100345.09;5016504;28;20041;-70
2022/12/03 00:57:37;;;;;;;4.07;3.67;;;;;;;3.12;91.21;100349.16;5016554;28;20042;-70
2022/12/03 01:00:07;;;;;;;1.17;1.13;;;;;;;3.13;91.11;100351.75;5016545;28;20057;-70
2022/12/03 01:02:35;;;;;;;3.92;3.38;;;;;;;3.12;90.86;100351.69;5016667;28;20034;-70
2022/12/03 01:05:06;;;;;;;3.47;3.25;;;;;;;3.15;90.91;100354.31;5014971;28;20054;-70
2022/12/03 01:07:36;;;;;;;2.95;1.80;;;;;;;3.13;91.00;100350.88;5016118;28;20084;-70
2022/12/03 01:10:05;;;;;;;;;;;;;;;3.16;91.42;100356.03;5016527;28;20566;-70
2022/12/03 01:12:34;;;;;;;3.17;2.33;;;;;;;3.17;90.74;100355.22;5016044;28;19928;-70
2022/12/03 01:15:02;;;;;;;3.00;2.45;;;;;;;3.17;90.34;100348.53;4998501;28;20042;-70
2022/12/03 01:17:31;;;;;;;4.57;4.13;;;;;;;3.14;91.18;100347.56;5016505;28;20037;-70
2022/12/03 01:20:01;;;;;;;1.48;1.38;;;;;;;3.14;90.81;100350.09;5016178;28;20076;-70
2022/12/03 01:22:31;;;;;;;5.10;4.60;;;;;;;3.19;90.68;100357.00;5015885;28;20128;-70
2022/12/03 01:25:00;;;;;;;4.85;4.32;;;;;;;3.18;91.15;100356.97;5016079;28;20038;-70
2022/12/03 01:27:29;;;;;;;5.30;4.15;;;;;;;3.17;90.61;100358.59;5015943;28;20492;-70
2022/12/03 01:29:57;;;;;;;3.25;2.90;;;;;;;3.18;90.51;100362.88;5015887;28;20415;-70
2022/12/03 01:32:25;;;;;;;2.17;1.98;;;;;;;3.15;90.73;100349.25;5015610;28;20038;-70
2022/12/03 01:34:55;;;;;;;4.30;3.30;;;;;;;3.14;91.42;100355.13;5015124;28;20508;-70
2022/12/03 01:37:26;;;;;;;6.07;4.72;;;;;;;3.16;91.16;100356.03;5015434;28;20043;-70
2022/12/03 01:39:56;;;;;;;4.10;2.90;;;;;;;3.18;91.13;100354.44;5015494;28;20133;-70
2022/12/03 01:42:29;;;;;;;2.72;2.53;;;;;;;3.19;90.77;100351.13;5015447;28;20129;-70
2022/12/03 01:44:59;;;;;;;3.10;2.35;;;;;;;3.18;90.40;100349.38;5015557;28;20121;-71
2022/12/03 01:47:31;;;;;;;5.70;3.92;;;;;;;3.20;90.77;100355.34;5015379;28;20057;-70
2022/12/03 01:50:04;;;;;;;2.50;2.30;;;;;;;3.20;90.67;100357.88;5015363;28;20050;-70
2022/12/03 01:52:37;;;;;;;4.75;3.28;;;;;;;3.19;90.92;100353.66;5015314;28;20049;-70
2022/12/03 01:55:14;;;;;;;3.92;3.58;;;;;;;3.20;91.25;100347.78;5015389;28;20403;-70
2022/12/03 01:57:46;;;;;;;3.55;2.08;;;;;;;3.19;91.18;100356.16;5015519;28;20045;-70
2022/12/03 02:00:16;;;;;;;9.68;4.68;;;;;;;3.20;90.92;100358.75;5015445;28;20060;-70
2022/12/03 02:02:48;;;;;;;5.50;4.57;;;;;;;3.18;91.10;100349.38;5015069;28;20056;-70
2022/12/03 02:05:21;;;;;;;5.30;4.75;;;;;;;3.21;91.21;100360.47;5015262;28;20057;-70
2022/12/03 02:07:49;;;;;;;2.92;2.70;;;;;;;3.22;90.79;100363.84;4997811;28;20050;-70
2022/12/03 02:10:25;;;;;;;4.28;3.35;;;;;;;3.23;90.49;100358.00;5015279;28;20404;-70
2022/12/03 02:12:58;;;;;;;9.75;4.05;;;;;;;3.22;90.94;100357.13;5014898;28;20041;-70
2022/12/03 02:15:27;;;;;;;5.13;4.65;;;;;;;3.22;90.71;100351.22;5014453;28;20500;-70
2022/12/03 02:17:56;;;;;;;4.10;3.47;;;;;;;3.17;91.30;100342.63;5015088;28;20117;-70
2022/12/03 02:20:25;;;;;;;5.50;3.60;;;;;;;3.23;90.87;100348.78;5014714;28;20049;-70
2022/12/03 02:23:05;;;;;;;16.17;5.60;;;;;;;3.23;90.86;100351.31;4997403;28;20133;-70
2022/12/03 02:25:36;;;;;;;;;;;;;;;3.24;90.57;100352.13;5015362;28;20046;-70
2022/12/03 02:28:08;;;;;;;2.78;2.50;;;;;;;3.26;90.84;100355.59;5014970;28;19925;-70
2022/12/03 02:30:37;;;;;;;4.75;4.40;;;;;;;3.25;90.97;100351.34;5015192;28;20046;-70
2022/12/03 02:33:05;;;;;;;3.00;2.50;;;;;;;3.22;91.29;100356.25;5014815;28;20129;-70
2022/12/03 02:35:36;;;;;;;5.47;4.13;;;;;;;3.20;90.75;100360.41;5014266;28;20046;-70
2022/12/03 02:38:11;;;;;;;1.92;1.77;;;;;;;3.19;90.70;100353.66;5014791;28;20057;-70
2022/12/03 02:40:44;;;;;;;2.40;2.20;;;;;;;3.22;91.01;100356.25;5014995;28;20149;-70
2022/12/03 02:43:15;;;;;;;3.90;3.58;;;;;;;3.20;91.16;100360.41;5014405;28;20050;-70
2022/12/03 02:45:47;;;;;;;8.30;3.63;;;;;;;3.19;90.76;100361.22;5014854;28;20443;-70
2022/12/03 02:48:17;;;;;;;3.45;3.17;;;;;;;3.20;91.24;100370.47;5014281;28;20050;-70
2022/12/03 02:50:52;;;;;;;6.65;4.32;;;;;;;3.21;90.94;100374.75;5014450;28;20495;-70
2022/12/03 02:53:26;;;;;;;4.13;3.35;;;;;;;3.21;91.05;100370.56;4996885;28;20060;-70
2022/12/03 02:56:00;;;;;;;4.28;2.95;;;;;;;3.22;90.88;100366.34;5014364;28;20050;-70
2022/12/03 02:58:31;;;;;;;5.90;5.40;;;;;;;3.21;91.02;100365.53;5014434;28;20045;-70
2022/12/03 03:01:02;;;;;;;3.65;2.72;;;;;;;3.21;90.98;100369.69;5014129;28;20054;-71
2022/12/03 03:03:32;;;;;;;4.72;4.43;;;;;;;3.20;91.32;100378.03;5014387;28;20116;-70
2022/12/03 03:06:02;;;;;;;5.57;2.60;;;;;;;3.21;91.63;100374.75;5014355;28;20037;-70
2022/12/03 03:08:31;;;;;;;4.57;4.15;;;;;;;3.23;91.48;100373.13;5013948;28;20056;-70
2022/12/03 03:11:02;;;;;;;2.90;2.08;;;;;;;3.23;91.09;100365.56;5013921;28;20048;-70
2022/12/03 03:13:34;;;;;;;1.77;1.63;;;;;;;3.25;91.34;100369.00;5014184;28;20378;-70
2022/12/03 03:16:05;;;;;;;4.68;4.28;;;;;;;3.22;91.79;100371.41;5013857;28;20045;-70
2022/12/03 03:18:34;;;;;;;6.20;2.63;;;;;;;3.19;91.48;100366.25;5013864;28;20496;-70
2022/12/03 03:21:03;;;;;;;0.80;0.80;;;;;;;3.25;91.68;100371.53;5014153;28;20069;-70
2022/12/03 03:23:32;;;;;;;0.95;0.95;;;;;;;3.25;90.97;100376.56;5013777;28;20050;-70
2022/12/03 03:26:05;;;;;;;4.20;2.23;;;;;;;3.24;91.91;100379.88;5014083;28;20049;-70
2022/12/03 03:28:37;;;;;;;3.05;2.85;;;;;;;3.26;91.56;100383.34;5013370;28;20060;-70
2022/12/03 03:31:09;;;;;;;2.30;2.10;;;;;;;3.26;91.24;100378.31;5014043;28;20067;-70
2022/12/03 03:33:41;;;;;;;5.43;4.93;;;;;;;3.23;91.18;100383.22;5014001;28;20419;-71
2022/12/03 03:36:10;;;;;;;2.38;2.22;;;;;;;3.22;91.90;100381.47;5013431;28;20053;-70
2022/12/03 03:38:41;;;;;;;6.57;3.55;;;;;;;3.20;91.29;100375.53;5013912;28;20556;-70
2022/12/03 03:41:14;;;;;;;2.97;2.72;;;;;;;3.20;91.25;100381.44;5013642;28;20052;-70
2022/12/03 03:43:46;;;;;;;1.35;1.25;;;;;;;3.18;91.61;100367.03;5013669;28;20092;-70
2022/12/03 03:46:16;;;;;;;4.63;4.22;;;;;;;3.24;91.44;100374.84;5013910;28;20052;-70
2022/12/03 03:48:47;;;;;;;6.03;2.72;;;;;;;3.26;91.94;100375.78;4996062;28;20050;-71
2022/12/03 03:51:17;;;;;;;6.07;4.25;;;;;;;3.27;91.56;100374.97;5013613;28;20471;-70
2022/12/03 03:53:49;;;;;;;7.90;5.28;;;;;;;3.27;91.38;100370.78;5014114;28;20041;-71
2022/12/03 03:56:20;;;;;;;3.42;2.33;;;;;;;3.27;91.54;100372.44;5013419;28;20048;-70
2022/12/03 03:58:49;;;;;;;3.97;3.17;;;;;;;3.27;91.45;100370.78;5013461;28;20081;-72
2022/12/03 04:01:18;;;;;;;7.73;5.57;;;;;;;3.27;91.54;100365.75;5013435;28;20492;-70
2022/12/03 04:03:47;;;;;;;6.47;6.03;;;;;;;3.24;91.67;100364.75;5013736;28;20282;-70
2022/12/03 04:06:16;;;;;;;7.77;2.10;;;;;;;3.28;91.47;100364.09;5013345;28;20084;-71
2022/12/03 04:08:44;;;;;;;2.80;2.60;;;;;;;3.30;91.29;100365.88;5013359;28;20303;-71
2022/12/03 04:13:53;;;;;;;8.23;3.33;;;;;;;3.32;91.82;100363.41;5013407;28;20057;-70
2022/12/03 04:16:22;;;;;;;3.45;2.72;;;;;;;3.30;91.62;100355.78;5013860;28;20062;-70
2022/12/03 04:18:50;;;;;;;2.40;2.20;;;;;;;3.29;92.08;100349.00;5013211;28;20049;-70
2022/12/03 04:24:01;;;;;;;5.65;4.18;;;;;;;3.32;91.61;100348.25;5013257;28;20104;-70
2022/12/03 04:29:10;;;;;;;3.13;2.47;;;;;;;3.31;92.20;100351.59;5013190;28;20496;-71
2022/12/03 04:36:56;;;;;;;1.38;1.33;;;;;;;3.31;91.70;100356.66;4995645;28;20045;-70
2022/12/03 04:39:25;;;;;;;5.17;3.20;;;;;;;3.34;92.11;100366.84;5014807;28;20038;-70
2022/12/03 04:41:53;;;;;;;1.90;1.80;;;;;;;3.31;91.81;100351.59;5016577;28;20276;-71
2022/12/03 04:47:09;;;;;;;2.72;2.50;;;;;;;3.41;91.90;100358.69;5016859;28;20046;-71
2022/12/03 04:49:40;;;;;;;8.50;4.72;;;;;;;3.39;91.68;100360.31;5016388;28;20510;-71
2022/12/03 04:52:09;;;;;;;4.35;3.95;;;;;;;3.39;92.14;100360.31;5017018;28;20081;-71
2022/12/03 04:54:38;;;;;;;3.83;3.53;;;;;;;3.40;91.67;100367.09;5016641;28;20050;-71
2022/12/03 04:57:07;;;;;;;4.85;3.25;;;;;;;3.43;91.77;100367.22;5016478;28;20034;-70
2022/12/03 04:59:39;;;;;;;4.82;4.20;;;;;;;3.44;91.80;100365.53;4999068;28;20065;-70
2022/12/03 05:02:08;;;;;;;1.58;1.48;;;;;;;3.45;92.13;100368.13;4999142;28;20144;-70
2022/12/03 05:04:36;;;;;;;1.98;1.80;;;;;;;3.25;91.89;100336.22;5017024;28;20046;-71
2022/12/03 05:07:05;;;;;;;2.78;2.58;;;;;;;3.44;92.24;100368.91;5016351;28;20037;-71
2022/12/03 05:09:34;;;;;;;2.45;2.25;;;;;;;3.45;91.83;100369.78;5016084;28;20048;-70
2022/12/03 05:12:03;;;;;;;1.53;1.23;;;;;;;3.22;91.47;100331.03;5015992;28;20096;-70
2022/12/03 05:14:31;;;;;;;1.55;1.45;;;;;;;3.38;92.22;100367.00;5015965;28;20042;-70
2022/12/03 05:17:02;;;;;;;3.22;2.92;;;;;;;3.39;91.50;100372.91;5016669;28;20046;-70
2022/12/03 05:22:13;;;;;;;8.13;4.07;;;;;;;3.37;92.03;100377.06;5014942;28;20038;-70
2022/12/03 05:24:42;;;;;;;4.72;3.80;;;;;;;3.38;92.03;100383.84;5016371;28;20064;-70
2022/12/03 05:27:11;;;;;;;1.75;1.65;;;;;;;3.33;92.05;100375.22;5016046;28;20519;-71
2022/12/03 05:29:40;;;;;;;3.33;3.03;;;;;;;3.38;92.17;100382.13;5015954;28;20133;-71
2022/12/03 05:32:10;;;;;;;3.00;2.75;;;;;;;3.43;92.27;100391.56;5015604;28;20046;-71
2022/12/03 05:34:39;;;;;;;4.03;3.72;;;;;;;3.40;91.62;100384.75;5015656;28;20050;-71
2022/12/03 05:37:08;;;;;;;4.10;3.60;;;;;;;3.39;92.08;100385.53;5016104;28;20053;-70
2022/12/03 05:39:37;;;;;;;3.15;2.88;;;;;;;3.23;91.44;100363.03;5015857;28;20108;-71
2022/12/03 05:44:44;;;;;;;3.15;2.63;;;;;;;3.31;92.14;100366.75;4998160;28;20392;-70
2022/12/03 05:47:14;;;;;;;3.50;2.75;;;;;;;3.42;91.40;100383.13;4998254;28;20132;-70
2022/12/03 05:49:43;;;;;;;2.60;2.22;;;;;;;3.41;91.59;100378.88;5015350;28;20058;-70
2022/12/03 05:52:11;;;;;;;3.85;3.50;;;;;;;3.43;92.02;100382.34;5015310;28;20038;-71
2022/12/03 05:54:41;;;;;;;3.17;2.77;;;;;;;3.42;92.10;100375.56;5015258;28;20065;-71
2022/12/03 05:57:10;;;;;;;1.77;1.67;;;;;;;3.37;92.15;100360.25;5015201;28;20290;-70
2022/12/03 05:59:38;;;;;;;8.48;3.78;;;;;;;3.43;92.05;100371.38;5015075;28;20484;-70
2022/12/03 06:02:07;;;;;;;5.60;3.65;;;;;;;3.44;91.47;100363.88;5014946;28;20496;-71
2022/12/03 06:04:52;;;;;;;2.72;2.13;;;;;;;3.47;92.00;100364.00;4977307;28;20545;-71
2022/12/03 06:07:22;;;;;;;1.98;1.83;;;;;;;3.50;91.89;100369.16;5014874;28;20088;-70
2022/12/03 06:09:50;;;;;;;3.80;3.00;;;;;;;3.41;91.34;100348.59;5014933;28;20065;-71
2022/12/03 06:12:19;;;;;;;1.07;1.03;;;;;;;3.45;91.98;100355.50;5014852;28;20077;-71
2022/12/03 06:14:48;;;;;;;3.28;3.03;;;;;;;3.51;91.74;100360.78;5014882;28;20100;-72
2022/12/03 06:17:16;;;;;;;0.90;0.90;;;;;;;3.46;92.15;100357.22;5014674;28;20046;-70
2022/12/03 06:19:45;;;;;;;2.72;2.53;;;;;;;3.53;91.92;100364.22;4980958;28;20407;-69
2022/12/03 06:22:15;;;;;;;4.00;2.92;;;;;;;3.53;91.38;100374.31;5014759;28;20136;-69
2022/12/03 06:24:44;;;;;;;2.72;2.53;;;;;;;3.48;91.42;100368.22;5014678;28;20060;-69
2022/12/03 06:27:13;;;;;;;1.25;1.20;;;;;;;3.54;91.50;100377.69;5014944;28;20045;-70
2022/12/03 06:29:41;;;;;;;4.15;3.75;;;;;;;3.44;91.69;100361.34;5014834;28;20042;-70
2022/12/03 06:32:10;;;;;;;2.13;2.03;;;;;;;3.54;91.23;100382.75;5014601;28;20046;-70
2022/12/03 06:34:39;;;;;;;2.85;2.65;;;;;;;3.56;91.24;100384.53;5014260;28;20046;-69
2022/12/03 06:37:08;;;;;;;2.40;2.22;;;;;;;3.57;91.67;100376.16;5014407;28;20411;-69
2022/12/03 06:39:38;;;;;;;1.30;1.20;;;;;;;3.56;91.64;100384.53;5014713;28;20377;-70
2022/12/03 06:42:07;;;;;;;4.43;2.05;;;;;;;3.56;91.76;100389.56;5014331;28;20048;-70
2022/12/03 06:44:35;;;;;;;3.78;3.17;;;;;;;3.50;91.71;100375.88;5014339;28;20069;-70
2022/12/03 06:47:04;;;;;;;5.28;4.88;;;;;;;3.57;91.14;100390.44;5014543;28;20034;-69
2022/12/03 06:49:33;;;;;;;1.65;1.55;;;;;;;3.56;91.07;100389.56;5014574;28;20050;-69
2022/12/03 06:52:02;;;;;;;2.50;2.33;;;;;;;3.57;91.01;100381.22;4996607;28;20061;-70
2022/12/03 06:54:30;;;;;;;2.72;2.53;;;;;;;3.58;91.61;100390.50;5014504;28;20042;-70
2022/12/03 06:57:00;;;;;;;2.47;2.28;;;;;;;3.59;91.25;100394.75;4996872;28;20049;-70
2022/12/03 06:59:32;;;;;;;1.20;1.10;;;;;;;3.60;91.47;100401.50;5013985;28;20100;-70
2022/12/03 07:02:01;;;;;;;1.38;1.27;;;;;;;3.37;91.39;100360.25;5013634;28;20045;-70
2022/12/03 07:04:30;;;;;;;2.17;2.00;;;;;;;3.60;91.04;100395.63;5014071;28;20042;-70
2022/12/03 07:06:59;;;;;;;22.17;3.38;;;;;;;3.61;91.37;100403.22;5013965;28;20275;-69
2022/12/03 07:09:28;;;;;;;2.47;2.28;;;;;;;3.61;91.42;100398.19;5013904;28;20046;-69
2022/12/03 07:11:57;;;;;;;3.58;3.28;;;;;;;3.63;90.79;100395.72;5014128;28;20069;-69
2022/12/03 07:14:27;;;;;;;1.30;1.25;;;;;;;3.64;91.34;100393.25;4996533;28;20038;-70
2022/12/03 07:16:56;;;;;;;4.07;2.13;;;;;;;3.50;90.87;100373.34;5014115;28;20054;-70
2022/12/03 07:19:25;;;;;;;1.45;1.35;;;;;;;3.68;91.42;100400.13;5013418;28;20053;-71
2022/12/03 07:22:00;;;;;;;2.92;2.67;;;;;;;3.70;91.23;100398.53;5014030;28;20053;-71
2022/12/03 07:24:28;;;;;;;5.38;3.28;;;;;;;3.73;91.08;100403.69;5013719;28;20049;-70
2022/12/03 07:26:57;;;;;;;4.75;2.00;;;;;;;3.74;91.01;100395.31;5013699;28;20050;-71
2022/12/03 07:29:27;;;;;;;2.30;2.13;;;;;;;3.77;91.47;100397.94;4996286;28;20047;-70
2022/12/03 07:31:55;;;;;;;6.97;4.15;;;;;;;3.77;91.40;100392.91;4996387;28;20056;-71
2022/12/03 07:34:24;;;;;;;3.63;3.28;;;;;;;3.80;91.62;100395.56;5013684;28;20121;-73
2022/12/03 07:36:53;;;;;;;1.67;1.58;;;;;;;3.77;90.98;100390.38;5013762;28;20554;-70
2022/12/03 07:39:22;;;;;;;5.32;4.13;;;;;;;3.78;91.29;100387.06;5013374;28;20053;-70
2022/12/03 07:41:50;;;;;;;3.08;2.85;;;;;;;3.62;90.81;100354.50;5013782;28;20076;-70
2022/12/03 07:44:19;;;;;;;2.72;2.53;;;;;;;3.83;90.80;100380.53;5013478;28;20061;-71
2022/12/03 07:46:49;;;;;;;4.00;3.67;;;;;;;3.83;90.99;100380.53;5013377;28;20042;-70
2022/12/03 07:49:18;;;;;;;2.10;1.98;;;;;;;3.89;91.35;100388.31;5013887;28;20046;-70
2022/12/03 07:51:52;;;;;;;2.13;2.03;;;;;;;3.95;91.19;100391.09;5013407;28;20046;-71
2022/12/03 07:54:22;;;;;;;6.13;2.70;;;;;;;3.95;91.07;100380.97;5013792;28;20403;-71
2022/12/03 07:56:50;;;;;;;1.77;1.67;;;;;;;3.98;91.21;100388.66;5013409;28;20049;-70
2022/12/03 07:59:25;;;;;;;2.35;2.15;;;;;;;4.02;90.96;100393.03;5013384;28;20050;-70
2022/12/03 08:01:55;;;;;;;2.78;1.65;;;;;;;4.04;91.24;100398.97;5013740;28;20136;-71
2022/12/03 08:04:24;;;;;;;1.60;1.50;;;;;;;4.05;90.83;100398.16;4996271;28;20065;-70
2022/12/03 08:06:52;;;;;;;1.48;1.38;;;;;;;4.10;90.67;100405.06;5013297;28;20124;-71
2022/12/03 08:09:21;;;;;;;1.83;1.73;;;;;;;4.08;91.22;100393.22;5013201;28;20053;-70
2022/12/03 08:11:50;;;;;;;1.42;1.33;;;;;;;4.11;91.08;100396.66;5013853;28;20136;-71
2022/12/03 08:14:20;;;;;;;2.72;1.98;;;;;;;4.12;91.38;100398.41;4998008;28;20069;-71
2022/12/03 08:16:48;;;;;;;1.63;1.52;;;;;;;4.17;90.81;100401.97;5017277;28;20046;-71
2022/12/03 08:19:18;;;;;;;1.35;1.25;;;;;;;4.18;91.23;100393.56;5016928;28;20446;-71
2022/12/03 08:21:47;;;;;;;1.63;1.52;;;;;;;4.23;91.05;100403.03;4999300;28;20096;-71
2022/12/03 08:24:18;;;;;;;1.45;1.33;;;;;;;4.28;90.93;100400.66;5016886;28;20073;-71
2022/12/03 08:26:49;;;;;;;5.03;2.80;;;;;;;4.28;91.07;100401.53;5017090;28;20045;-71
2022/12/03 08:29:19;;;;;;;1.25;1.17;;;;;;;4.28;91.07;100405.72;5016808;28;20050;-72
2022/12/03 08:31:50;;;;;;;5.65;1.58;;;;;;;4.30;90.96;100404.97;5016828;28;20068;-70
2022/12/03 08:34:22;;;;;;;1.55;1.45;;;;;;;4.13;90.70;100365.59;5016950;28;20145;-70
2022/12/03 08:36:56;;;;;;;3.30;1.98;;;;;;;4.38;91.05;100392.63;5016501;28;20041;-70
2022/12/03 08:39:32;;;;;;;3.47;3.17;;;;;;;4.44;90.77;100397.91;5016444;28;20042;-70
2022/12/03 08:44:51;;;;;;;0.57;0.57;;;;;;;4.47;91.07;100387.88;4983138;28;20391;-70
2022/12/03 08:47:21;;;;;;;;;;;;;;;4.50;90.54;100388.00;5016955;28;20073;-70
2022/12/03 08:49:55;;;;;;;1.63;1.52;;;;;;;4.52;90.49;100393.94;5016818;28;20346;-70
2022/12/03 08:52:31;;;;;;;3.45;2.00;;;;;;;4.54;90.35;100384.75;5016215;28;20045;-71
2022/12/03 08:55:23;;;;;;;2.00;1.70;;;;;;;4.59;90.06;100389.16;5016342;28;20065;-72
2022/12/03 08:57:53;;;;;;;1.60;1.50;;;;;;;4.65;89.99;100393.56;5016048;28;20132;-70
2022/12/03 09:00:24;;;;;;;3.35;2.55;;;;;;;4.62;90.18;100384.22;5016125;28;20077;-74
2022/12/03 09:02:58;;;;;;;1.80;1.70;;;;;;;4.69;90.30;100392.88;5016164;28;20060;-70
2022/12/03 09:05:31;;;;;;;1.20;0.98;;;;;;;4.67;89.56;100387.75;5016431;28;20480;-70
2022/12/03 09:07:59;;;;;;;1.50;1.40;;;;;;;4.68;89.62;100383.53;5016391;28;20092;-71
2022/12/03 09:10:28;;;;;;;3.43;2.40;;;;;;;4.66;90.09;100370.00;5016021;28;20046;-72
2022/12/03 09:12:57;;;;;;;1.55;1.20;;;;;;;4.67;89.75;100376.78;5016184;28;20042;-72
2022/12/03 09:15:25;;;;;;;1.65;1.55;;;;;;;4.67;89.84;100375.13;5013330;28;20042;-71
2022/12/03 09:17:54;;;;;;;2.25;1.92;;;;;;;4.71;89.77;100368.50;5015877;28;20049;-71
2022/12/03 09:20:23;;;;;;;1.70;1.40;;;;;;;4.74;89.69;100368.59;5016344;28;20562;-71
2022/12/03 09:22:53;;;;;;;2.05;1.90;;;;;;;4.72;89.68;100371.09;5016033;28;20034;-72
2022/12/03 09:25:21;;;;;;;1.08;0.98;;;;;;;4.71;89.55;100376.06;5014657;28;20042;-70
2022/12/03 09:27:50;;;;;;;1.45;1.35;;;;;;;4.69;89.54;100375.16;5015517;28;20121;-70
2022/12/03 09:30:19;;;;;;;1.37;1.27;;;;;;;4.72;89.25;100375.28;5015501;28;20048;-72
2022/12/03 09:32:47;;;;;;;2.63;1.50;;;;;;;4.74;89.09;100378.72;5015514;28;20839;-72
2022/12/03 09:35:17;;;;;;;1.10;1.00;;;;;;;4.75;89.03;100382.97;5009912;28;20117;-72
2022/12/03 09:37:45;;;;;;;0.93;0.93;;;;;;;4.74;88.83;100373.66;4978763;28;20081;-71
2022/12/03 09:40:15;;;;;;;2.05;1.83;;;;;;;4.81;89.24;100372.19;5004388;28;20045;-70
2022/12/03 09:42:45;;;;;;;1.42;1.33;;;;;;;4.84;88.83;100375.69;5004515;28;20133;-70
2022/12/03 09:45:15;;;;;;;2.53;2.33;;;;;;;4.88;88.60;100371.56;5003222;28;20045;-72
2022/12/03 09:47:47;;;;;;;0.77;0.77;;;;;;;4.91;88.85;100374.22;4996019;28;20101;-70
2022/12/03 09:50:20;;;;;;;0.68;0.68;;;;;;;4.95;88.39;100370.97;4995922;28;20130;-70
2022/12/03 09:52:50;;;;;;;2.88;1.65;;;;;;;4.93;88.23;100365.88;4978330;28;20042;-71
2022/12/03 09:55:26;;;;;;;1.60;1.50;;;;;;;4.97;88.04;100367.66;4995789;28;20057;-70
2022/12/03 09:57:56;;;;;;;1.05;0.95;;;;;;;5.03;87.95;100378.00;4995729;28;20081;-70
2022/12/03 10:00:27;;;;;;;6.13;2.30;;;;;;;5.04;87.83;100374.66;4995261;28;20544;-70
2022/12/03 10:02:59;;;;;;;3.42;1.25;;;;;;;5.09;87.57;100372.25;4995284;28;20060;-71
2022/12/03 10:05:29;;;;;;;0.85;0.85;;;;;;;5.13;87.12;100374.09;4995539;28;20066;-71
2022/12/03 10:08:04;;;;;;;1.17;1.08;;;;;;;5.14;86.91;100376.66;4995566;28;20141;-72
2022/12/03 10:10:36;;;;;;;0.63;0.63;;;;;;;5.17;86.72;100376.78;4995787;28;20042;-70
2022/12/03 10:13:07;;;;;;;2.80;2.60;;;;;;;5.19;86.68;100376.81;4995802;28;20137;-71
2022/12/03 10:15:36;;;;;;;2.85;2.45;;;;;;;5.14;86.80;100363.16;4995391;28;20055;-70
2022/12/03 10:18:18;;;;;;;2.30;2.10;;;;;;;5.18;86.43;100368.34;4995588;28;20046;-70
2022/12/03 10:20:47;;;;;;;1.85;1.75;;;;;;;5.19;86.41;100370.09;4995040;28;20046;-70
2022/12/03 10:23:24;;;;;;;0.85;0.85;;;;;;;5.19;86.45;100369.22;4994992;28;20050;-71
2022/12/03 10:25:56;;;;;;;0.98;0.88;;;;;;;5.19;86.17;100369.22;4995398;28;20150;-70
2022/12/03 10:28:31;;;;;;;1.25;1.15;;;;;;;5.20;86.03;100361.69;4994971;28;20570;-71
2022/12/03 10:31:00;;;;;;;1.23;1.13;;;;;;;5.22;86.00;100360.06;4994957;28;20492;-70
2022/12/03 10:33:32;;;;;;;1.50;1.40;;;;;;;5.22;85.88;100370.19;4994957;28;20077;-71
2022/12/03 10:36:20;;;;;;;0.88;0.88;;;;;;;5.25;85.49;100365.25;4994666;28;20136;-71
2022/12/03 10:39:11;;;;;;;2.30;2.10;;;;;;;5.18;85.11;100357.41;4978222;28;20125;-71
2022/12/03 10:41:44;;;;;;;0.40;0.40;;;;;;;5.20;84.91;100355.78;4995112;28;20440;-71
2022/12/03 10:44:18;;;;;;;2.75;2.53;;;;;;;5.24;84.57;100362.63;4994843;28;20046;-71
2022/12/03 10:47:05;;;;;;;0.88;0.88;;;;;;;5.21;84.26;100348.22;4995349;28;20144;-71
2022/12/03 10:49:34;;;;;;;0.30;0.30;;;;;;;5.32;84.56;100364.63;4994896;28;20054;-71
2022/12/03 10:52:03;;;;;;;0.30;0.30;;;;;;;5.30;83.63;100357.78;4977623;28;20397;-71
2022/12/03 10:54:33;;;;;;;;;;;;;;;5.34;83.71;100357.06;4994960;28;20134;-71
2022/12/03 10:57:04;;;;;;;1.00;1.00;;;;;;;5.36;83.85;100358.81;4994480;28;19951;-71
2022/12/03 10:59:34;;;;;;;0.50;0.50;;;;;;;5.34;83.82;100360.44;4994440;28;20061;-71
2022/12/03 11:02:03;;;;;;;4.20;2.45;;;;;;;5.30;83.21;100356.09;4994678;28;20053;-71
2022/12/03 11:04:35;;;;;;;0.65;0.65;;;;;;;5.31;82.99;100354.41;4994705;28;20054;-71
2022/12/03 11:07:13;;;;;;;0.60;0.60;;;;;;;5.32;82.98;100354.50;4977350;28;20053;-72
2022/12/03 11:09:44;;;;;;;0.90;0.88;;;;;;;5.32;83.09;100351.97;4994417;28;20070;-71
2022/12/03 11:12:21;;;;;;;1.83;1.00;;;;;;;5.34;82.82;100349.47;4994984;28;20141;-70
2022/12/03 11:15:05;;;;;;;1.65;1.55;;;;;;;5.33;83.26;100341.00;4994573;28;20108;-72
2022/12/03 11:17:55;;;;;;;2.25;2.05;;;;;;;5.36;82.86;100337.72;4994630;28;20054;-71
2022/12/03 11:20:46;;;;;;;1.98;1.85;;;;;;;5.34;82.69;100335.16;4989008;28;20052;-71
2022/12/03 11:23:14;;;;;;;20.48;1.70;;;;;;;5.37;82.52;100340.28;4994164;28;20130;-71
2022/12/03 11:25:49;;;;;;;1.10;1.10;;;;;;;5.38;82.42;100333.56;4977007;28;20420;-71
2022/12/03 11:28:37;;;;;;;0.75;0.75;;;;;;;5.42;82.49;100330.31;4994102;28;20101;-72
2022/12/03 11:31:13;;;;;;;1.55;1.45;;;;;;;5.42;82.66;100326.09;4977120;28;20042;-71
2022/12/03 11:33:43;;;;;;;1.98;1.45;;;;;;;5.42;82.58;100328.63;4994408;28;20484;-71
2022/12/03 11:36:15;;;;;;;0.45;0.45;;;;;;;5.46;82.34;100324.53;4993815;28;20046;-71
2022/12/03 11:38:50;;;;;;;3.65;2.60;;;;;;;5.45;82.11;100322.78;4994338;28;20100;-71
2022/12/03 11:41:25;;;;;;;1.27;1.17;;;;;;;5.46;82.77;100321.13;4993860;28;20054;-71
2022/12/03 11:44:20;;;;;;;2.75;1.95;;;;;;;5.47;81.95;100321.16;4993930;28;20058;-71
2022/12/03 11:46:50;;;;;;;1.63;0.75;;;;;;;5.50;81.94;100325.47;4993484;28;20092;-70
2022/12/03 11:49:38;;;;;;;4.13;2.30;;;;;;;5.36;81.98;100280.38;4995736;28;20046;-71
2022/12/03 11:52:27;;;;;;;0.93;0.88;;;;;;;5.58;82.16;100318.97;4997967;28;20054;-71
2022/12/03 11:55:01;;;;;;;0.93;0.70;;;;;;;5.58;82.33;100306.31;4980549;28;20042;-71
2022/12/03 11:57:35;;;;;;;1.67;1.38;;;;;;;5.61;82.01;100303.88;4997830;28;20085;-71
2022/12/03 12:00:24;;;;;;;3.33;1.80;;;;;;;5.64;82.15;100303.97;4997773;28;20496;-71
2022/12/03 12:02:55;;;;;;;2.70;2.17;;;;;;;5.62;81.59;100291.25;4997708;28;20046;-71
2022/12/03 12:05:31;;;;;;;1.30;1.23;;;;;;;5.65;81.69;100296.41;4997570;28;20140;-70
2022/12/03 12:08:01;;;;;;;1.15;1.05;;;;;;;5.67;81.72;100287.16;4997913;28;20480;-71
2022/12/03 12:10:48;;;;;;;1.20;1.10;;;;;;;5.68;81.50;100290.56;4997680;28;20046;-71
2022/12/03 12:13:43;;;;;;;1.88;1.77;;;;;;;5.69;81.08;100287.19;4997600;28;20133;-70
2022/12/03 12:16:13;;;;;;;1.27;1.17;;;;;;;5.72;81.56;100283.09;4994962;28;20081;-71